Terminal Aerodrome Forecast
Issued by NWS

Home | Current Version | Previous Version | Text Only | Print | Product List | Glossary Off
Versions: 1 2 3 4 5 6 7 8 9 10 11 12 13 14 15 16 17

000
FTUS43 KICT 031555 AAC
TAFCNU
TAF AMD
KCNU 031555Z 0316/0412 03005KT P6SM SCT020
      TEMPO 0316/0320 BKN022
     FM032000 03013KT P6SM OVC025
     FM040100 07007KT P6SM OVC050=

USA.gov is the U.S. government's official web portal to all federal, state and local government web resources and services.